Time;durP1;ratioP1;P1;durP2;ratioP2;P2;SDS_P1;SDS_P2;PMS_P1;PMS_P2;Temp;Humidity;BMP_temperature;BMP_pressure;BME280_temperature;BME280_humidity;BME280_pressure;Samples;Min_cycle;Max_cycle;Signal;HPM_P1;HPM_P2
2022/01/19 00:01:59;;;;;;;36.90;14.30;;;;;;;0.50;80.87;101685.35;130102;1270;108675;-74
2022/01/19 00:05:05;;;;;;;33.00;13.30;;;;;;;0.59;80.95;101678.90;130012;1270;108485;-75
2022/01/19 00:08:16;;;;;;;37.40;14.10;;;;;;;0.69;81.04;101675.20;129977;1270;108847;-76
2022/01/19 00:11:22;;;;;;;40.20;20.80;;;;;;;0.79;80.83;101678.88;130056;1270;106821;-76
2022/01/19 00:14:28;;;;;;;38.80;16.10;;;;;;;0.87;80.80;101682.46;130240;1270;108666;-76
2022/01/19 00:17:33;;;;;;;34.80;14.00;;;;;;;0.89;80.78;101679.27;130100;1270;108758;-78
2022/01/19 00:20:38;;;;;;;37.00;14.90;;;;;;;0.89;80.73;101675.04;130221;1270;108714;-76
2022/01/19 00:23:44;;;;;;;35.00;14.20;;;;;;;0.90;80.87;101671.83;130160;1270;108798;-76
2022/01/19 00:26:49;;;;;;;35.50;15.80;;;;;;;0.91;80.83;101655.70;130034;1270;108761;-76
2022/01/19 00:29:55;;;;;;;41.00;16.90;;;;;;;0.89;80.80;101646.48;129979;1270;108534;-76
2022/01/19 00:33:00;;;;;;;35.90;13.80;;;;;;;0.84;80.78;101643.15;129964;1270;107588;-75
2022/01/19 00:36:06;;;;;;;29.00;12.50;;;;;;;0.78;80.95;101640.73;129975;1270;108732;-77
2022/01/19 00:39:11;;;;;;;29.40;13.10;;;;;;;0.87;81.06;101644.45;129937;1270;108706;-76
2022/01/19 00:42:17;;;;;;;31.60;14.50;;;;;;;0.93;81.08;101642.80;130127;1270;108762;-78
2022/01/19 00:45:23;;;;;;;28.60;12.60;;;;;;;0.98;81.01;101636.86;130041;1270;107534;-75
2022/01/19 00:48:28;;;;;;;32.70;13.20;;;;;;;0.99;81.13;101633.48;130077;1270;108680;-75
2022/01/19 00:51:34;;;;;;;30.70;13.40;;;;;;;1.00;81.11;101628.55;130162;1270;108719;-75
2022/01/19 00:54:41;;;;;;;30.60;13.40;;;;;;;1.02;81.10;101633.20;130274;1270;108787;-75
2022/01/19 00:57:47;;;;;;;36.90;13.40;;;;;;;1.02;81.17;101636.34;130124;1271;108761;-75
2022/01/19 01:00:53;;;;;;;32.50;13.10;;;;;;;1.03;81.11;101636.52;130136;1270;108715;-76
2022/01/19 01:03:58;;;;;;;38.40;13.30;;;;;;;1.06;81.08;101629.70;130196;1270;108877;-76
2022/01/19 01:07:05;;;;;;;29.80;11.00;;;;;;;1.11;81.26;101620.21;130141;1270;108820;-75
2022/01/19 01:10:15;;;;;;;27.50;11.80;;;;;;;1.21;81.24;101610.91;130147;1270;108686;-75
2022/01/19 01:13:29;;;;;;;28.80;12.10;;;;;;;1.30;81.07;101600.41;130057;1270;107765;-74
2022/01/19 01:16:37;;;;;;;29.20;12.20;;;;;;;1.36;81.09;101597.17;129982;1270;109856;-75
2022/01/19 01:19:42;;;;;;;29.70;12.80;;;;;;;1.42;81.03;101593.64;129933;1270;108673;-76
2022/01/19 01:22:48;;;;;;;26.00;12.40;;;;;;;1.44;80.97;101589.84;129938;1270;108912;-75
2022/01/19 01:25:54;;;;;;;25.20;11.20;;;;;;;1.42;80.94;101582.92;129966;1270;108777;-76
2022/01/19 01:29:00;;;;;;;25.20;11.00;;;;;;;1.42;81.00;101578.73;130104;1270;107863;-75
2022/01/19 01:32:07;;;;;;;26.40;11.20;;;;;;;1.41;81.06;101560.34;130025;1270;108744;-75
2022/01/19 01:35:13;;;;;;;33.00;12.80;;;;;;;1.38;81.04;101553.98;129897;1270;107506;-75
2022/01/19 01:38:18;;;;;;;26.70;12.60;;;;;;;1.32;80.99;101550.88;130128;1270;107847;-75
2022/01/19 01:41:24;;;;;;;24.80;10.10;;;;;;;1.30;81.17;101535.89;130234;1270;108936;-74
2022/01/19 01:44:39;;;;;;;28.90;11.00;;;;;;;1.35;81.33;101528.67;130197;1270;108876;-73
2022/01/19 01:47:50;;;;;;;25.30;10.90;;;;;;;1.43;81.19;101530.81;130142;1270;108761;-77
2022/01/19 01:54:28;;;;;;;26.60;11.00;;;;;;;1.50;80.94;101513.16;130165;1270;108919;-75
2022/01/19 01:57:34;;;;;;;23.80;10.60;;;;;;;1.48;80.95;101503.77;129989;1270;108703;-74
2022/01/19 02:00:39;;;;;;;24.50;10.10;;;;;;;1.46;81.00;101485.07;129956;1270;108749;-76
2022/01/19 02:03:46;;;;;;;29.10;10.40;;;;;;;1.44;80.95;101476.58;129893;1270;108865;-74
2022/01/19 02:07:24;;;;;;;27.20;10.50;;;;;;;1.43;80.91;101468.75;129960;1270;106801;-74
2022/01/19 02:10:42;;;;;;;23.90;9.00;;;;;;;1.43;81.08;101475.08;130157;1270;108846;-74
2022/01/19 02:24:00;;;;;;;19.30;9.90;;;;;;;1.62;81.08;101485.65;129744;1270;108931;-74
2022/01/19 02:27:12;;;;;;;25.30;10.10;;;;;;;1.63;81.23;101477.52;130171;1270;108790;-74
2022/01/19 02:31:01;;;;;;;21.60;10.20;;;;;;;1.63;81.20;101474.89;130200;1270;108871;-76
2022/01/19 02:40:52;;;;;;;25.40;9.40;;;;;;;1.62;81.40;101456.70;130024;1270;108831;-76
2022/01/19 02:43:57;;;;;;;24.50;11.00;;;;;;;1.66;81.38;101455.83;130140;1270;108448;-76
2022/01/19 02:50:27;;;;;;;23.70;10.90;;;;;;;1.76;81.43;101432.05;130096;1270;108833;-77
2022/01/19 02:53:34;;;;;;;23.20;11.40;;;;;;;1.77;81.54;101425.87;130116;1270;109043;-77
2022/01/19 02:56:43;;;;;;;21.30;11.70;;;;;;;1.75;81.50;101424.73;130249;1270;108800;-76
2022/01/19 03:06:16;;;;;;;29.70;12.00;;;;;;;1.73;81.50;101419.74;130251;1270;108881;-77
2022/01/19 03:10:10;;;;;;;22.70;10.20;;;;;;;1.72;81.88;101392.79;130328;1270;108821;-76
2022/01/19 03:13:15;;;;;;;24.40;11.90;;;;;;;1.76;81.90;101388.02;130178;1271;108978;-76
2022/01/19 03:16:22;;;;;;;26.50;12.30;;;;;;;1.80;81.90;101376.09;130294;1270;107914;-76
2022/01/19 03:19:29;;;;;;;24.40;12.50;;;;;;;1.83;81.83;101372.65;130272;1270;108729;-78
2022/01/19 03:22:40;;;;;;;29.90;12.60;;;;;;;1.84;82.02;101368.93;130062;1270;107744;-77
2022/01/19 03:25:47;;;;;;;28.30;12.60;;;;;;;1.84;82.02;101363.13;130325;1270;108909;-79
2022/01/19 03:28:52;;;;;;;23.20;12.10;;;;;;;1.82;82.03;101354.60;130193;1270;107863;-76
2022/01/19 03:31:58;;;;;;;27.90;13.80;;;;;;;1.78;82.15;101350.21;130593;1270;108862;-77
2022/01/19 03:35:04;;;;;;;31.90;13.60;;;;;;;1.76;82.20;101337.70;130090;1271;108829;-76
2022/01/19 03:38:10;;;;;;;27.90;12.30;;;;;;;1.77;82.33;101334.84;130145;1270;108959;-77
2022/01/19 03:41:16;;;;;;;23.10;10.70;;;;;;;1.84;82.38;101337.34;130422;1270;108857;-77
2022/01/19 03:44:21;;;;;;;23.70;10.60;;;;;;;1.91;82.39;101333.66;129940;1270;108987;-78
2022/01/19 03:47:27;;;;;;;23.90;11.50;;;;;;;1.98;82.37;101323.16;130244;1271;108874;-80
2022/01/19 03:50:33;;;;;;;22.70;10.60;;;;;;;2.02;82.35;101319.30;130035;1273;107725;-80
2022/01/19 03:53:39;;;;;;;19.20;11.00;;;;;;;2.04;82.38;101309.39;130050;1271;108825;-79
2022/01/19 03:56:45;;;;;;;22.30;10.70;;;;;;;2.03;82.33;101302.75;130217;1271;108668;-80
2022/01/19 03:59:50;;;;;;;23.30;10.80;;;;;;;2.02;82.38;101303.35;130035;1273;107023;-80
2022/01/19 04:02:56;;;;;;;20.60;10.40;;;;;;;1.98;82.31;101299.80;130094;1272;108641;-87
2022/01/19 04:06:07;;;;;;;20.30;9.80;;;;;;;1.96;82.36;101295.35;130036;1272;108681;-83
2022/01/19 04:09:12;;;;;;;15.30;8.60;;;;;;;1.94;82.53;101295.96;130046;1271;107801;-83
2022/01/19 04:12:26;;;;;;;18.90;9.50;;;;;;;1.99;82.54;101294.17;130353;1271;109131;-84
2022/01/19 04:15:32;;;;;;;22.20;10.10;;;;;;;2.03;82.67;101283.80;130008;1272;108952;-83
2022/01/19 04:18:37;;;;;;;19.40;8.80;;;;;;;2.04;82.52;101266.91;129979;1271;108728;-83
2022/01/19 04:21:43;;;;;;;15.90;8.30;;;;;;;2.04;82.52;101266.20;130001;1271;108504;-83
2022/01/19 04:24:49;;;;;;;17.70;9.00;;;;;;;2.04;82.50;101264.25;130322;1273;108900;-84
2022/01/19 04:27:55;;;;;;;18.30;9.10;;;;;;;2.04;82.56;101256.22;130752;1271;108663;-83
2022/01/19 04:31:01;;;;;;;17.10;9.00;;;;;;;2.03;82.59;101249.77;130302;1270;108812;-81
2022/01/19 04:34:12;;;;;;;14.40;7.90;;;;;;;2.04;82.62;101246.71;130029;1270;107879;-82
2022/01/19 04:37:32;;;;;;;23.10;9.20;;;;;;;2.09;82.55;101242.28;130001;1270;108995;-82
2022/01/19 04:54:42;;;;;;;20.60;10.10;;;;;;;2.11;82.58;101230.23;130198;1267;108662;-83
2022/01/19 05:05:16;;;;;;;18.60;9.10;;;;;;;2.19;82.51;101219.33;130064;1270;108700;-83
2022/01/19 05:08:42;;;;;;;16.70;9.00;;;;;;;2.24;82.67;101214.31;130476;1267;107747;-84
2022/01/19 05:15:11;;;;;;;21.50;10.70;;;;;;;2.29;82.35;101211.45;130443;1267;107701;-84
2022/01/19 05:18:19;;;;;;;21.10;10.50;;;;;;;2.28;82.22;101210.63;130534;1266;107788;-82
2022/01/19 05:21:24;;;;;;;19.20;10.90;;;;;;;2.24;82.23;101208.52;130402;1267;108212;-82
2022/01/19 05:24:59;;;;;;;24.60;11.50;;;;;;;2.20;82.39;101202.45;130323;1267;108685;-84
2022/01/19 05:28:26;;;;;;;20.20;10.80;;;;;;;2.17;82.51;101200.82;130448;1267;108860;-84
2022/01/19 05:31:31;;;;;;;19.40;9.10;;;;;;;2.18;82.54;101200.02;130365;1267;108734;-81
2022/01/19 05:34:37;;;;;;;19.00;10.50;;;;;;;2.23;82.47;101203.69;130386;1267;107682;-84
2022/01/19 05:37:55;;;;;;;20.40;9.80;;;;;;;2.27;82.45;101201.91;130416;1267;108778;-83
2022/01/19 05:41:33;;;;;;;20.90;9.80;;;;;;;2.29;82.43;101200.21;130253;1267;108696;-84
2022/01/19 05:44:40;;;;;;;17.60;10.20;;;;;;;2.30;82.49;101195.95;130511;1267;108759;-84
2022/01/19 05:47:46;;;;;;;18.30;9.80;;;;;;;2.30;82.43;101190.48;130648;1267;107692;-83
2022/01/19 05:50:52;;;;;;;18.90;10.30;;;;;;;2.28;82.41;101189.90;130430;1267;108500;-84
2022/01/19 05:54:01;;;;;;;24.60;11.10;;;;;;;2.26;82.51;101189.14;130736;1267;108780;-82
2022/01/19 05:57:07;;;;;;;22.00;10.70;;;;;;;2.24;82.48;101188.70;130355;1267;107606;-82
2022/01/19 06:00:19;;;;;;;61.90;35.80;;;;;;;2.26;82.50;101184.91;130435;1267;108976;-85
2022/01/19 06:03:27;;;;;;;25.30;12.30;;;;;;;2.27;82.55;101173.08;130470;1267;108766;-86
2022/01/19 06:06:42;;;;;;;44.30;23.30;;;;;;;2.34;82.60;101177.66;130538;1267;108685;-85
2022/01/19 06:10:10;;;;;;;49.50;26.40;;;;;;;2.40;82.48;101165.80;130494;1267;108531;-79
2022/01/19 06:13:22;;;;;;;42.40;22.70;;;;;;;2.42;82.49;101162.67;130397;1267;109075;-81
2022/01/19 06:16:28;;;;;;;29.90;17.60;;;;;;;2.43;82.38;101160.37;130599;1267;107823;-78
2022/01/19 06:19:34;;;;;;;43.10;23.20;;;;;;;2.42;82.44;101151.80;130313;1267;108703;-77
2022/01/19 06:22:40;;;;;;;85.30;43.70;;;;;;;2.41;82.39;101149.23;130579;1267;108708;-77
2022/01/19 06:25:46;;;;;;;49.50;22.90;;;;;;;2.40;82.50;101147.50;130370;1267;108722;-78
2022/01/19 06:28:53;;;;;;;68.70;35.70;;;;;;;2.42;82.46;101136.70;130377;1267;109100;-78
2022/01/19 06:32:00;;;;;;;30.30;17.40;;;;;;;2.46;82.63;101134.39;130424;1266;108636;-77
2022/01/19 06:35:07;;;;;;;23.20;13.00;;;;;;;2.50;82.49;101133.11;130403;1267;108274;-77
2022/01/19 06:38:36;;;;;;;21.30;11.50;;;;;;;2.56;82.42;101129.50;130295;1267;108694;-79
2022/01/19 06:41:49;;;;;;;22.00;11.00;;;;;;;2.59;82.42;101124.77;130413;1267;108741;-78
2022/01/19 06:44:54;;;;;;;55.80;30.80;;;;;;;2.60;82.34;101120.70;130364;1267;108843;-77
2022/01/19 06:47:59;;;;;;;97.60;50.70;;;;;;;2.57;82.35;101123.99;130239;1268;109177;-78
2022/01/19 06:51:05;;;;;;;81.50;44.80;;;;;;;2.51;82.42;101120.42;130264;1267;108771;-78
2022/01/19 06:54:20;;;;;;;67.10;41.50;;;;;;;2.50;82.53;101118.40;130281;1269;109001;-78
2022/01/19 06:57:26;;;;;;;27.50;15.60;;;;;;;2.52;82.71;101112.66;130267;1268;108771;-78
2022/01/19 07:00:59;;;;;;;71.40;38.10;;;;;;;2.58;82.67;101107.42;130054;1268;240543;-78
2022/01/19 07:04:39;;;;;;;96.70;59.50;;;;;;;2.63;82.63;101104.88;130073;1270;107905;-78
2022/01/19 07:07:45;;;;;;;63.50;37.10;;;;;;;2.69;82.59;101108.23;130297;1268;108901;-77
2022/01/19 07:10:52;;;;;;;165.10;92.70;;;;;;;2.70;82.56;101109.21;130391;1269;107894;-78
2022/01/19 07:13:58;;;;;;;161.40;80.00;;;;;;;2.70;82.47;101102.21;130304;1270;108784;-78
2022/01/19 07:17:04;;;;;;;68.50;34.10;;;;;;;2.69;82.44;101099.59;130367;1270;108756;-77
2022/01/19 07:20:11;;;;;;;38.60;19.80;;;;;;;2.74;82.63;101091.64;130267;1269;108755;-77
2022/01/19 07:23:17;;;;;;;47.60;27.00;;;;;;;2.78;82.53;101091.41;130164;1269;108953;-77
2022/01/19 07:26:23;;;;;;;62.50;33.80;;;;;;;2.83;82.65;101092.04;130282;1268;108860;-77
2022/01/19 07:29:29;;;;;;;83.20;38.60;;;;;;;2.88;82.47;101088.09;130299;1268;108715;-77
2022/01/19 07:32:37;;;;;;;152.10;84.50;;;;;;;2.86;82.48;101084.67;130315;1268;108948;-77
2022/01/19 07:35:45;;;;;;;33.30;17.90;;;;;;;2.82;82.31;101089.81;130308;1268;108922;-77
2022/01/19 07:38:51;;;;;;;33.60;19.10;;;;;;;2.77;82.45;101085.33;130113;1268;108709;-77
2022/01/19 07:41:57;;;;;;;16.40;9.70;;;;;;;2.80;82.59;101082.88;130284;1268;108801;-77
2022/01/19 07:45:21;;;;;;;20.90;11.30;;;;;;;2.84;82.50;101079.70;130303;1268;107862;-78
2022/01/19 07:48:47;;;;;;;38.90;23.10;;;;;;;2.78;82.46;101074.20;130084;1268;109642;-77
2022/01/19 07:52:11;;;;;;;16.10;10.40;;;;;;;2.80;82.64;101076.59;130309;1268;108840;-77
2022/01/19 07:55:37;;;;;;;18.90;10.60;;;;;;;2.74;82.53;101076.34;130292;1268;110296;-77
2022/01/19 07:59:02;;;;;;;40.70;22.80;;;;;;;2.71;82.64;101074.58;130279;1268;108827;-77
2022/01/19 08:02:19;;;;;;;35.90;19.00;;;;;;;2.63;82.66;101070.11;130329;1268;108868;-78
2022/01/19 08:05:44;;;;;;;50.20;28.30;;;;;;;2.64;82.95;101063.34;130346;1269;108702;-78
2022/01/19 08:08:50;;;;;;;48.30;24.30;;;;;;;2.71;82.90;101061.39;130008;1271;108796;-77
2022/01/19 08:11:55;;;;;;;34.80;19.80;;;;;;;2.80;82.94;101059.73;130176;1269;107739;-78
2022/01/19 08:15:05;;;;;;;27.90;16.60;;;;;;;2.85;82.86;101061.20;130300;1268;108654;-76
2022/01/19 08:18:14;;;;;;;31.40;19.20;;;;;;;2.85;82.67;101060.46;130337;1268;108820;-77
2022/01/19 08:21:19;;;;;;;22.30;11.90;;;;;;;2.85;82.83;101058.16;130335;1268;108808;-76
2022/01/19 08:24:30;;;;;;;22.30;13.30;;;;;;;2.84;82.74;101050.50;130250;1268;108817;-77
2022/01/19 08:27:36;;;;;;;21.50;12.80;;;;;;;2.88;82.85;101049.61;130282;1268;108809;-78
2022/01/19 08:30:44;;;;;;;21.10;12.80;;;;;;;2.91;82.67;101050.98;130124;1269;109013;-77
2022/01/19 08:33:50;;;;;;;31.30;18.40;;;;;;;2.95;82.62;101046.22;130304;1268;108880;-76
2022/01/19 08:37:01;;;;;;;42.90;25.00;;;;;;;2.92;82.66;101045.84;130240;1268;108677;-77
2022/01/19 08:40:25;;;;;;;27.30;14.50;;;;;;;2.96;82.86;101041.59;130347;1268;108855;-77
2022/01/19 08:43:33;;;;;;;22.20;12.90;;;;;;;2.95;82.68;101035.30;130323;1268;108866;-76
2022/01/19 08:46:41;;;;;;;28.60;18.30;;;;;;;2.94;82.69;101037.65;130255;1268;108672;-76
2022/01/19 08:50:07;;;;;;;26.50;15.40;;;;;;;2.98;82.71;101027.42;130284;1268;108885;-76
2022/01/19 08:53:27;;;;;;;18.50;10.90;;;;;;;3.01;82.79;101024.13;130203;1268;108932;-76
2022/01/19 08:56:44;;;;;;;22.10;12.60;;;;;;;2.99;82.44;101026.31;130071;1269;108788;-77
2022/01/19 08:59:50;;;;;;;21.40;12.80;;;;;;;2.96;82.80;101021.38;130295;1268;108785;-78
2022/01/19 09:02:55;;;;;;;24.30;14.00;;;;;;;2.94;82.70;101013.95;130291;1268;109173;-77
2022/01/19 09:06:00;;;;;;;166.40;101.70;;;;;;;2.90;82.81;101012.02;130228;1268;108806;-76
2022/01/19 09:09:06;;;;;;;40.00;23.70;;;;;;;2.90;82.83;101011.31;130246;1268;108903;-78
2022/01/19 09:12:13;;;;;;;72.70;40.50;;;;;;;2.88;82.80;101010.90;130272;1268;108777;-77
2022/01/19 09:15:18;;;;;;;95.50;51.20;;;;;;;2.92;83.00;101014.41;130291;1268;108769;-77
2022/01/19 09:18:23;;;;;;;44.70;25.50;;;;;;;3.03;82.98;101008.84;130258;1268;107233;-77
2022/01/19 09:21:29;;;;;;;26.70;16.50;;;;;;;3.12;82.63;101010.62;130274;1268;108744;-78
2022/01/19 09:24:35;;;;;;;29.90;18.80;;;;;;;3.14;82.62;101004.73;130307;1268;107611;-78
2022/01/19 09:27:41;;;;;;;51.30;25.50;;;;;;;3.12;82.47;101003.60;130326;1268;108805;-77
2022/01/19 09:30:48;;;;;;;49.80;23.50;;;;;;;3.11;82.73;100998.95;130234;1268;107060;-77
2022/01/19 09:34:05;;;;;;;127.60;72.20;;;;;;;3.17;82.65;100990.70;130379;1268;108745;-76
2022/01/19 09:37:11;;;;;;;59.10;38.20;;;;;;;3.24;82.64;100982.21;130312;1268;108642;-77
2022/01/19 09:40:17;;;;;;;32.70;19.60;;;;;;;3.29;82.59;100972.55;130339;1268;108894;-76
2022/01/19 09:43:22;;;;;;;37.10;19.80;;;;;;;3.40;82.56;100962.33;130055;1271;109877;-76
2022/01/19 09:46:29;;;;;;;41.20;25.70;;;;;;;3.52;82.55;100951.21;130224;1268;107211;-76
2022/01/19 09:49:35;;;;;;;38.80;22.90;;;;;;;3.61;82.38;100945.23;130257;1268;108573;-77
2022/01/19 09:52:41;;;;;;;47.20;26.40;;;;;;;3.64;82.33;100947.88;130283;1268;108783;-77
2022/01/19 09:55:48;;;;;;;34.60;20.10;;;;;;;3.66;82.11;100941.02;130255;1268;108906;-76
2022/01/19 09:58:54;;;;;;;42.80;21.90;;;;;;;3.64;81.89;100942.38;130323;1268;108928;-77
2022/01/19 10:02:03;;;;;;;23.70;13.60;;;;;;;3.62;81.81;100942.52;130101;1271;108896;-77
2022/01/19 10:05:10;;;;;;;42.10;19.90;;;;;;;3.66;82.14;100937.71;130362;1268;109824;-77
2022/01/19 10:08:25;;;;;;;69.00;41.00;;;;;;;3.76;81.98;100933.24;130370;1268;106671;-77
2022/01/19 10:16:58;;;;;;;50.70;27.30;;;;;;;3.83;81.78;100924.02;130349;1268;105555;-76
2022/01/19 10:18:36;;;;;;;36.00;17.40;;;;;;;3.99;81.52;100922.50;130192;1268;109106;-74
2022/01/19 10:22:00;;;;;;;36.40;18.70;;;;;;;3.91;81.33;100919.99;130241;1268;108666;-74
2022/01/19 10:25:07;;;;;;;48.20;29.80;;;;;;;3.89;81.37;100917.85;130275;1268;108841;-75
2022/01/19 10:28:12;;;;;;;27.80;17.20;;;;;;;3.85;81.46;100917.73;130231;1270;109254;-75
2022/01/19 10:31:18;;;;;;;44.30;30.60;;;;;;;3.79;81.40;100912.09;130403;1267;108863;-75
2022/01/19 10:34:24;;;;;;;26.60;15.90;;;;;;;3.83;81.77;100903.41;130523;1267;107671;-75
2022/01/19 10:37:30;;;;;;;35.80;21.40;;;;;;;3.92;81.71;100900.75;130539;1267;108861;-75
2022/01/19 10:40:37;;;;;;;30.60;18.00;;;;;;;3.96;81.09;100900.34;130502;1267;108622;-75
2022/01/19 10:43:46;;;;;;;30.50;18.70;;;;;;;3.88;81.15;100896.59;130535;1267;108643;-75
2022/01/19 10:46:51;;;;;;;29.30;17.80;;;;;;;3.88;81.08;100903.81;130547;1267;108680;-77
2022/01/19 10:49:57;;;;;;;31.70;21.80;;;;;;;3.83;80.87;100892.16;130581;1267;108769;-77
2022/01/19 10:53:06;;;;;;;35.80;24.00;;;;;;;3.79;81.36;100879.02;130563;1267;106782;-75
2022/01/19 10:56:25;;;;;;;98.90;56.20;;;;;;;3.84;81.30;100877.46;130505;1267;108724;-78
2022/01/19 10:59:33;;;;;;;233.40;106.20;;;;;;;3.82;81.04;100874.97;130612;1267;108720;-76
2022/01/19 11:02:39;;;;;;;161.40;89.70;;;;;;;3.86;81.15;100862.42;130636;1267;108953;-77
2022/01/19 11:05:47;;;;;;;57.30;36.20;;;;;;;3.97;81.29;100858.73;130608;1267;108603;-77
2022/01/19 11:08:53;;;;;;;38.90;23.70;;;;;;;4.05;81.03;100852.92;130617;1267;108673;-77
2022/01/19 11:12:05;;;;;;;46.80;28.60;;;;;;;4.11;80.99;100845.70;130458;1267;108899;-77
2022/01/19 11:15:12;;;;;;;49.50;34.20;;;;;;;4.14;80.61;100843.41;130337;1267;108620;-78
2022/01/19 11:18:19;;;;;;;38.50;25.60;;;;;;;4.14;80.74;100838.47;130359;1267;108801;-77
2022/01/19 11:21:33;;;;;;;43.20;28.70;;;;;;;4.12;80.75;100832.63;130435;1267;108643;-76
2022/01/19 11:24:56;;;;;;;41.90;25.30;;;;;;;4.10;80.41;100827.11;130536;1267;108635;-76
2022/01/19 11:28:02;;;;;;;37.20;22.80;;;;;;;4.04;80.29;100826.10;130540;1267;107446;-78
2022/01/19 11:31:11;;;;;;;37.00;22.00;;;;;;;3.99;80.71;100815.48;130547;1267;108898;-77
2022/01/19 11:34:37;;;;;;;33.20;20.50;;;;;;;4.06;80.83;100804.98;130547;1267;108805;-76
2022/01/19 11:37:44;;;;;;;32.20;20.10;;;;;;;4.16;80.63;100799.59;130369;1267;108699;-77
2022/01/19 11:40:50;;;;;;;28.60;18.90;;;;;;;4.28;80.69;100794.27;130366;1267;108873;-75
2022/01/19 11:43:58;;;;;;;82.20;52.70;;;;;;;4.34;80.32;100787.52;130414;1267;108653;-78
2022/01/19 11:47:21;;;;;;;38.00;25.70;;;;;;;4.40;80.32;100779.41;130326;1267;108759;-77
2022/01/19 11:50:29;;;;;;;44.50;32.50;;;;;;;4.41;80.04;100773.33;130384;1267;108805;-76
2022/01/19 11:54:02;;;;;;;29.30;19.60;;;;;;;4.45;80.46;100775.16;130349;1267;108505;-75
2022/01/19 11:57:13;;;;;;;27.20;19.30;;;;;;;4.50;80.22;100772.21;130353;1267;108784;-76
2022/01/19 12:00:23;;;;;;;29.70;18.50;;;;;;;4.47;79.75;100763.43;130300;1267;109576;-76
2022/01/19 12:03:31;;;;;;;28.00;16.40;;;;;;;4.45;80.12;100755.14;130372;1267;107786;-76
2022/01/19 12:06:37;;;;;;;30.10;18.50;;;;;;;4.47;79.98;100747.55;130317;1267;108749;-76
2022/01/19 12:09:57;;;;;;;27.30;17.50;;;;;;;4.49;79.90;100742.66;130302;1267;108893;-76
2022/01/19 12:13:28;;;;;;;28.00;17.70;;;;;;;4.53;79.93;100738.18;130249;1267;108875;-75
2022/01/19 12:16:52;;;;;;;29.40;18.10;;;;;;;4.59;79.86;100726.71;130269;1267;108668;-77
2022/01/19 12:20:01;;;;;;;32.00;20.10;;;;;;;4.59;79.83;100712.80;130305;1267;108860;-77
2022/01/19 12:23:27;;;;;;;27.10;17.80;;;;;;;4.58;79.64;100704.37;130274;1267;108411;-77
2022/01/19 12:26:50;;;;;;;27.60;17.70;;;;;;;4.59;79.80;100699.90;130287;1267;106661;-77
2022/01/19 12:30:09;;;;;;;28.40;17.50;;;;;;;4.59;79.67;100691.29;130273;1267;108713;-78
2022/01/19 12:33:14;;;;;;;26.50;17.90;;;;;;;4.52;79.25;100692.30;130286;1267;108990;-77
2022/01/19 12:36:42;;;;;;;27.80;17.30;;;;;;;4.37;79.11;100686.42;130281;1267;108875;-77
2022/01/19 12:39:48;;;;;;;25.40;15.60;;;;;;;4.26;79.42;100680.25;130320;1267;108863;-77
2022/01/19 12:42:56;;;;;;;30.80;17.70;;;;;;;4.31;79.70;100670.80;130275;1267;107540;-77
2022/01/19 12:46:04;;;;;;;30.10;17.80;;;;;;;4.35;79.37;100667.69;130250;1266;108922;-77
2022/01/19 12:49:28;;;;;;;27.80;18.40;;;;;;;4.37;79.41;100660.02;130288;1266;108910;-76
2022/01/19 12:52:36;;;;;;;27.70;17.10;;;;;;;4.39;79.41;100659.16;130292;1267;108710;-77
2022/01/19 12:55:43;;;;;;;27.70;16.50;;;;;;;4.38;79.06;100656.08;130226;1267;109724;-77
2022/01/19 12:58:50;;;;;;;26.50;16.70;;;;;;;4.32;79.08;100652.20;130292;1267;107726;-77
2022/01/19 13:01:56;;;;;;;28.60;16.20;;;;;;;4.24;79.16;100654.13;130292;1267;109746;-76
2022/01/19 13:05:08;;;;;;;27.70;16.70;;;;;;;4.23;79.22;100656.15;130274;1267;108782;-78
2022/01/19 13:08:26;;;;;;;40.60;23.10;;;;;;;4.16;78.93;100658.56;130290;1267;108760;-76
2022/01/19 13:11:38;;;;;;;141.80;57.30;;;;;;;4.04;79.00;100659.34;130371;1267;108701;-76
2022/01/19 13:14:43;;;;;;;45.10;28.50;;;;;;;4.02;79.16;100658.12;130370;1267;108702;-76
2022/01/19 13:17:51;;;;;;;56.80;34.50;;;;;;;3.99;79.12;100654.59;130261;1267;108605;-75
2022/01/19 13:21:02;;;;;;;59.60;31.30;;;;;;;3.96;79.08;100643.52;130261;1267;108696;-76
2022/01/19 13:24:13;;;;;;;47.20;26.60;;;;;;;4.01;79.18;100640.02;130283;1267;108763;-78
2022/01/19 13:27:18;;;;;;;76.20;33.90;;;;;;;4.02;79.11;100638.16;130358;1267;107509;-77
2022/01/19 13:30:25;;;;;;;31.80;19.10;;;;;;;4.04;79.38;100632.46;130373;1266;109270;-77
2022/01/19 13:33:31;;;;;;;28.60;17.50;;;;;;;4.06;79.31;100628.09;130340;1267;108700;-77
2022/01/19 13:36:37;;;;;;;32.90;18.90;;;;;;;4.05;79.35;100620.20;130292;1267;108850;-78
2022/01/19 13:39:43;;;;;;;30.30;18.40;;;;;;;4.01;79.04;100621.73;130324;1267;108848;-76
2022/01/19 13:42:56;;;;;;;31.70;17.70;;;;;;;3.91;78.83;100616.53;130260;1267;107669;-77
2022/01/19 13:46:12;;;;;;;34.50;19.70;;;;;;;3.86;79.27;100614.45;130311;1267;108763;-77
2022/01/19 13:49:18;;;;;;;43.40;20.70;;;;;;;3.86;79.33;100606.48;130275;1267;108626;-77
2022/01/19 13:52:25;;;;;;;50.30;23.20;;;;;;;3.92;79.53;100604.70;130266;1267;107164;-77
2022/01/19 13:55:31;;;;;;;42.20;20.40;;;;;;;3.98;79.30;100608.90;130356;1267;108856;-74
2022/01/19 13:58:40;;;;;;;58.70;27.40;;;;;;;4.01;79.18;100603.77;130593;1266;108783;-77
2022/01/19 14:01:56;;;;;;;45.30;23.50;;;;;;;4.01;79.10;100595.48;130417;1267;108558;-76
2022/01/19 14:05:04;;;;;;;45.60;23.90;;;;;;;4.00;79.25;100596.58;130365;1267;108693;-76
2022/01/19 14:08:10;;;;;;;41.10;22.30;;;;;;;3.96;79.23;100593.73;130498;1266;108644;-76
2022/01/19 14:11:25;;;;;;;46.70;25.80;;;;;;;3.91;78.97;100580.13;130656;1266;108981;-76
2022/01/19 14:14:35;;;;;;;44.70;25.20;;;;;;;3.86;79.01;100570.80;130532;1266;108693;-76
2022/01/19 14:17:47;;;;;;;40.50;21.80;;;;;;;3.78;78.90;100561.96;130506;1267;108905;-75
2022/01/19 14:21:10;;;;;;;41.50;21.20;;;;;;;3.74;78.96;100558.20;130277;1267;108910;-76
2022/01/19 14:24:16;;;;;;;41.40;22.70;;;;;;;3.71;78.76;100555.40;130325;1267;107525;-77
2022/01/19 14:27:36;;;;;;;39.20;22.50;;;;;;;3.71;78.88;100551.73;130295;1266;108662;-77
2022/01/19 14:30:42;;;;;;;44.30;24.70;;;;;;;3.69;78.95;100550.41;130324;1267;109192;-77
2022/01/19 14:33:53;;;;;;;51.50;27.50;;;;;;;3.69;78.55;100550.65;130335;1267;108953;-77
2022/01/19 14:37:11;;;;;;;71.50;36.20;;;;;;;3.64;78.79;100544.25;130489;1267;108977;-76
2022/01/19 14:40:17;;;;;;;55.60;31.90;;;;;;;3.62;78.90;100530.30;130521;1266;108531;-77
2022/01/19 14:43:27;;;;;;;527.10;299.50;;;;;;;3.60;78.82;100526.79;130574;1267;108727;-77
2022/01/19 14:46:55;;;;;;;125.30;79.90;;;;;;;3.55;78.70;100519.35;130569;1266;107575;-77
2022/01/19 14:50:15;;;;;;;55.20;31.90;;;;;;;3.49;78.82;100516.73;130431;1267;108731;-77
2022/01/19 14:53:21;;;;;;;40.40;23.20;;;;;;;3.46;78.87;100511.35;130536;1266;108894;-76
2022/01/19 14:56:29;;;;;;;34.10;20.00;;;;;;;3.44;78.93;100507.02;130269;1267;109672;-77
2022/01/19 14:59:38;;;;;;;33.10;21.60;;;;;;;3.44;78.84;100504.56;130283;1267;108776;-76
2022/01/19 15:02:46;;;;;;;43.00;26.10;;;;;;;3.47;78.92;100510.56;130328;1267;108953;-76
2022/01/19 15:05:52;;;;;;;46.70;27.70;;;;;;;3.48;78.93;100506.42;130323;1267;109023;-77
2022/01/19 15:08:58;;;;;;;39.70;22.80;;;;;;;3.50;78.84;100495.92;130307;1267;108922;-77
2022/01/19 15:12:03;;;;;;;43.30;24.10;;;;;;;3.43;78.66;100485.11;130372;1267;108803;-77
2022/01/19 15:15:10;;;;;;;36.50;20.60;;;;;;;3.34;78.78;100477.81;130356;1267;108909;-74